Terminal Aerodrome Forecast
Issued by NWS

Home | Current Version | Previous Version | Graphics & Text | Print | Product List | Glossary On
Versions: 1 2 3 4 5 6 7 8 9 10 11 12
000
FTUS43 KBIS 190500
TAFMOT
TAF
KMOT 190521Z 1906/2006 23010KT P6SM SCT150
     FM190900 27009KT P6SM SCT120
     FM191500 30010KT P6SM SKC
     FM200200 26005KT P6SM SKC=

USA.gov is the U.S. government's official web portal to all federal, state and local government web resources and services.